Time;durP1;ratioP1;P1;durP2;ratioP2;P2;SDS_P1;SDS_P2;PMS_P1;PMS_P2;Temp;Humidity;BMP_temperature;BMP_pressure;BME280_temperature;BME280_humidity;BME280_pressure;Samples;Min_cycle;Max_cycle;Signal;HPM_P1;HPM_P2
2023/01/27 00:01:18;;;;;;;18.87;12.03;;;4.90;92.10;;;;;;946256;149;27361;-80
2023/01/27 00:03:44;;;;;;;18.80;12.13;;;5.00;92.20;;;;;;946652;151;27320;-80
2023/01/27 00:06:11;;;;;;;21.60;12.73;;;5.00;92.20;;;;;;946837;151;28324;-80
2023/01/27 00:08:37;;;;;;;20.80;12.70;;;4.90;92.50;;;;;;946184;149;27346;-80
2023/01/27 00:13:49;;;;;;;17.83;11.73;;;5.00;92.20;;;;;;946139;151;27326;-80
2023/01/27 00:16:15;;;;;;;22.23;13.33;;;5.00;92.10;;;;;;946699;150;27323;-80
2023/01/27 00:18:42;;;;;;;17.47;12.10;;;5.00;92.10;;;;;;962357;146;27295;-80
2023/01/27 00:26:38;;;;;;;19.43;12.27;;;5.00;92.00;;;;;;944320;149;27359;-80
2023/01/27 00:29:04;;;;;;;22.97;13.07;;;5.00;92.00;;;;;;947568;149;27837;-80
2023/01/27 00:34:16;;;;;;;16.43;11.40;;;5.00;91.80;;;;;;947118;149;27405;-80
2023/01/27 00:36:42;;;;;;;19.77;12.27;;;5.00;91.80;;;;;;949488;151;27396;-80
2023/01/27 00:39:09;;;;;;;17.27;12.17;;;4.90;91.80;;;;;;944387;149;27330;-80
2023/01/27 00:41:35;;;;;;;18.80;11.60;;;4.90;91.80;;;;;;951790;148;27308;-80
2023/01/27 00:44:04;;;;;;;19.13;11.90;;;4.90;91.80;;;;;;947577;150;27337;-80
2023/01/27 00:46:29;;;;;;;17.47;12.10;;;4.90;91.80;;;;;;947666;150;27768;-80
2023/01/27 00:48:55;;;;;;;19.37;11.37;;;4.90;91.90;;;;;;947300;151;27299;-80
2023/01/27 00:51:22;;;;;;;17.83;11.23;;;4.80;91.90;;;;;;947398;150;27299;-80
2023/01/27 00:53:48;;;;;;;18.83;11.27;;;4.90;91.90;;;;;;948019;150;27392;-80
2023/01/27 00:56:15;;;;;;;16.23;11.30;;;4.80;91.90;;;;;;947738;150;27355;-80
2023/01/27 00:58:41;;;;;;;17.07;12.13;;;4.80;92.00;;;;;;948107;151;27338;-80
2023/01/27 01:01:08;;;;;;;16.93;11.20;;;4.80;92.10;;;;;;948284;151;27372;-80
2023/01/27 01:03:35;;;;;;;16.80;10.80;;;4.80;92.40;;;;;;946964;150;27332;-80
2023/01/27 01:06:01;;;;;;;16.60;11.13;;;4.80;92.10;;;;;;948694;150;27303;-80
2023/01/27 01:08:28;;;;;;;18.10;11.33;;;4.80;92.10;;;;;;947660;150;27456;-80
2023/01/27 01:10:54;;;;;;;19.43;12.83;;;4.80;92.10;;;;;;947522;151;27248;-80
2023/01/27 01:13:21;;;;;;;19.67;12.03;;;4.90;92.20;;;;;;947656;150;27280;-80
2023/01/27 01:15:48;;;;;;;20.60;11.73;;;4.80;92.10;;;;;;947986;150;27298;-80
2023/01/27 01:18:14;;;;;;;18.93;11.60;;;4.80;92.20;;;;;;952007;150;27362;-80
2023/01/27 01:20:41;;;;;;;19.30;11.73;;;4.80;92.20;;;;;;952753;148;27327;-80
2023/01/27 01:23:07;;;;;;;19.50;13.17;;;4.80;92.20;;;;;;952752;150;27246;-80
2023/01/27 01:25:34;;;;;;;16.83;11.37;;;4.80;92.10;;;;;;951923;148;27370;-80
2023/01/27 01:28:01;;;;;;;16.57;10.77;;;4.80;92.10;;;;;;953490;148;27283;-80
2023/01/27 01:30:27;;;;;;;19.77;11.17;;;4.80;92.20;;;;;;952642;148;27346;-80
2023/01/27 01:32:54;;;;;;;20.60;12.37;;;4.80;92.20;;;;;;951659;150;27341;-80
2023/01/27 01:35:20;;;;;;;18.93;12.30;;;4.80;92.10;;;;;;953059;148;27441;-80
2023/01/27 01:37:47;;;;;;;18.20;11.53;;;4.80;92.10;;;;;;953305;148;27287;-80
2023/01/27 01:40:13;;;;;;;16.67;10.23;;;4.80;92.10;;;;;;953076;148;27271;-80
2023/01/27 01:42:52;;;;;;;21.17;11.67;;;4.80;92.10;;;;;;952505;150;27330;-80
2023/01/27 01:45:31;;;;;;;18.03;11.70;;;4.70;92.10;;;;;;952714;150;27303;-80
2023/01/27 01:47:57;;;;;;;17.37;11.13;;;4.70;92.10;;;;;;952889;147;27247;-80
2023/01/27 01:50:24;;;;;;;16.23;10.50;;;4.70;92.10;;;;;;951797;149;27270;-80
2023/01/27 01:52:50;;;;;;;15.87;11.30;;;4.70;92.30;;;;;;953242;150;27462;-80
2023/01/27 01:55:17;;;;;;;17.97;11.10;;;4.70;92.30;;;;;;952614;148;27404;-80
2023/01/27 01:57:44;;;;;;;17.77;11.00;;;4.70;92.30;;;;;;952683;150;27235;-80
2023/01/27 02:00:10;;;;;;;16.17;10.43;;;4.60;92.30;;;;;;952328;148;27243;-80
2023/01/27 02:02:37;;;;;;;19.47;12.00;;;4.70;92.40;;;;;;952299;149;27338;-80
2023/01/27 02:05:03;;;;;;;17.73;11.67;;;4.60;92.50;;;;;;952919;148;27334;-80
2023/01/27 02:07:33;;;;;;;20.03;12.50;;;4.70;92.60;;;;;;952457;150;27259;-80
2023/01/27 02:09:59;;;;;;;19.10;11.13;;;4.70;92.70;;;;;;952894;150;27406;-80
2023/01/27 02:12:26;;;;;;;19.07;11.47;;;4.70;92.70;;;;;;952311;148;27336;-80
2023/01/27 02:14:53;;;;;;;16.93;10.97;;;4.70;92.70;;;;;;952756;148;27415;-80
2023/01/27 02:17:19;;;;;;;17.63;11.57;;;4.60;92.60;;;;;;951328;150;27478;-80
2023/01/27 02:20:10;;;;;;;15.03;10.33;;;4.60;92.70;;;;;;947859;151;27291;-80
2023/01/27 02:22:40;;;;;;;17.43;10.87;;;4.70;92.70;;;;;;947593;151;27295;-80
2023/01/27 02:25:06;;;;;;;19.07;12.67;;;4.60;92.50;;;;;;947668;148;27841;-80
2023/01/27 02:27:33;;;;;;;15.77;10.43;;;4.60;92.50;;;;;;946155;151;27475;-80
2023/01/27 02:30:00;;;;;;;17.57;10.47;;;4.60;92.60;;;;;;948269;150;27349;-80
2023/01/27 02:32:26;;;;;;;16.47;11.00;;;4.60;92.60;;;;;;946935;151;27243;-80
2023/01/27 02:34:53;;;;;;;16.77;10.17;;;4.60;92.70;;;;;;947424;150;27416;-80
2023/01/27 02:37:19;;;;;;;16.33;10.70;;;4.60;92.70;;;;;;947946;150;27350;-80
2023/01/27 02:39:46;;;;;;;18.50;9.93;;;4.60;92.70;;;;;;948075;150;27323;-80
2023/01/27 02:42:13;;;;;;;15.80;10.80;;;4.60;92.80;;;;;;947555;151;27275;-80
2023/01/27 02:44:39;;;;;;;16.37;10.63;;;4.60;92.90;;;;;;947407;151;27303;-80
2023/01/27 02:47:06;;;;;;;12.73;9.13;;;4.60;92.90;;;;;;947832;150;27388;-80
2023/01/27 02:49:32;;;;;;;15.37;10.37;;;4.60;92.90;;;;;;947446;150;27432;-80
2023/01/27 02:51:59;;;;;;;15.90;10.47;;;4.50;92.90;;;;;;948048;150;27416;-80
2023/01/27 02:54:26;;;;;;;15.77;11.07;;;4.60;93.10;;;;;;947894;150;27311;-80
2023/01/27 02:56:52;;;;;;;14.93;10.43;;;4.50;93.10;;;;;;947234;150;27320;-80
2023/01/27 02:59:19;;;;;;;16.97;10.70;;;4.60;93.10;;;;;;948092;150;27256;-80
2023/01/27 03:01:45;;;;;;;15.63;10.30;;;4.60;93.10;;;;;;948246;150;27354;-80
2023/01/27 03:04:14;;;;;;;15.13;9.53;;;4.60;93.20;;;;;;947337;151;27780;-80
2023/01/27 03:06:38;;;;;;;16.50;9.80;;;4.60;93.20;;;;;;947991;150;27255;-80
2023/01/27 03:09:05;;;;;;;15.70;10.37;;;4.60;93.20;;;;;;948203;150;27260;-80
2023/01/27 03:14:16;;;;;;;16.17;10.47;;;4.60;93.20;;;;;;947946;151;27339;-80
2023/01/27 03:19:27;;;;;;;15.13;9.90;;;4.60;93.20;;;;;;947625;148;27272;-80
2023/01/27 03:21:55;;;;;;;15.93;9.80;;;4.60;93.30;;;;;;948227;150;27287;-80
2023/01/27 03:24:20;;;;;;;17.67;10.10;;;4.60;93.40;;;;;;947787;150;27490;-80
2023/01/27 03:26:47;;;;;;;16.17;10.57;;;4.60;93.80;;;;;;947621;151;27450;-80
2023/01/27 03:31:58;;;;;;;14.00;9.03;;;4.70;93.60;;;;;;947710;151;27304;-80
2023/01/27 03:34:25;;;;;;;12.60;8.87;;;4.60;93.50;;;;;;947160;150;27357;-80
2023/01/27 03:47:53;;;;;;;13.90;8.60;;;4.70;93.40;;;;;;947958;148;27457;-83
2023/01/27 03:50:18;;;;;;;11.43;7.90;;;4.70;93.50;;;;;;946932;151;27331;-80
2023/01/27 03:53:01;;;;;;;12.30;8.50;;;4.70;93.50;;;;;;946998;151;27397;-80
2023/01/27 03:55:10;;;;;;;12.93;8.27;;;4.70;93.50;;;;;;947613;151;27251;-80
2023/01/27 03:57:37;;;;;;;13.20;9.20;;;4.70;93.50;;;;;;947463;148;27346;-80
2023/01/27 04:00:03;;;;;;;14.87;8.70;;;4.70;93.60;;;;;;947405;150;27410;-80
2023/01/27 04:07:59;;;;;;;14.57;9.17;;;4.70;93.50;;;;;;947864;151;27472;-80
2023/01/27 04:10:25;;;;;;;11.73;8.47;;;4.70;93.50;;;;;;947654;150;27436;-80
2023/01/27 04:12:52;;;;;;;12.23;8.43;;;4.70;93.60;;;;;;948166;151;27881;-80
2023/01/27 04:15:19;;;;;;;13.33;9.33;;;4.70;93.60;;;;;;947533;151;27300;-80
2023/01/27 04:17:45;;;;;;;12.60;8.40;;;4.70;93.60;;;;;;948351;150;27377;-80
2023/01/27 04:20:12;;;;;;;14.20;8.60;;;4.70;93.50;;;;;;948593;148;27346;-80
2023/01/27 04:22:38;;;;;;;14.83;8.10;;;4.70;93.50;;;;;;947975;151;27427;-80
2023/01/27 04:25:05;;;;;;;12.10;8.03;;;4.70;93.50;;;;;;947853;150;27387;-80
2023/01/27 04:27:32;;;;;;;10.27;7.87;;;4.70;93.60;;;;;;946965;151;27400;-80
2023/01/27 04:29:59;;;;;;;13.87;8.77;;;4.70;93.60;;;;;;947486;150;27810;-80
2023/01/27 04:32:26;;;;;;;10.60;7.80;;;4.70;93.60;;;;;;946741;150;27267;-80
2023/01/27 04:34:51;;;;;;;12.60;8.30;;;4.70;93.70;;;;;;948440;150;27335;-80
2023/01/27 04:37:18;;;;;;;11.43;8.40;;;4.70;93.70;;;;;;947595;151;27396;-80
2023/01/27 04:39:46;;;;;;;11.13;7.90;;;4.70;93.70;;;;;;948323;150;27388;-80
2023/01/27 04:42:11;;;;;;;10.77;7.87;;;4.70;93.70;;;;;;947649;150;27322;-80
2023/01/27 04:44:38;;;;;;;11.20;8.07;;;4.80;93.80;;;;;;948498;148;27335;-80
2023/01/27 04:47:04;;;;;;;12.60;8.47;;;4.70;93.70;;;;;;948046;150;28298;-80
2023/01/27 04:49:31;;;;;;;12.07;8.53;;;4.80;93.30;;;;;;947613;151;27725;-80
2023/01/27 04:51:57;;;;;;;13.47;8.93;;;4.80;93.70;;;;;;948246;150;27743;-80
2023/01/27 04:54:24;;;;;;;10.83;7.90;;;4.80;93.80;;;;;;947339;150;27431;-80
2023/01/27 04:56:53;;;;;;;11.40;7.53;;;4.80;93.70;;;;;;948354;150;27498;-80
2023/01/27 04:59:20;;;;;;;11.63;7.67;;;4.80;93.80;;;;;;946844;150;27436;-80
2023/01/27 05:01:46;;;;;;;12.50;7.50;;;4.80;93.70;;;;;;947728;151;27448;-80
2023/01/27 05:04:13;;;;;;;12.40;8.50;;;4.80;93.60;;;;;;947752;150;27299;-80
2023/01/27 05:06:40;;;;;;;11.77;8.23;;;4.80;93.50;;;;;;948229;150;27331;-80
2023/01/27 05:09:06;;;;;;;11.20;7.53;;;4.80;93.50;;;;;;948173;150;27343;-80
2023/01/27 05:11:33;;;;;;;10.43;7.60;;;4.80;93.60;;;;;;947481;151;27376;-80
2023/01/27 05:13:59;;;;;;;12.40;8.03;;;4.80;93.60;;;;;;948191;150;27300;-80
2023/01/27 05:16:26;;;;;;;12.70;7.87;;;4.80;93.70;;;;;;948353;150;27788;-80
2023/01/27 05:18:53;;;;;;;10.10;7.27;;;4.80;93.60;;;;;;947610;150;27351;-80
2023/01/27 05:21:19;;;;;;;12.17;7.30;;;4.80;93.50;;;;;;940131;149;27328;-80
2023/01/27 05:23:46;;;;;;;10.80;7.40;;;4.80;93.40;;;;;;939862;149;27347;-80
2023/01/27 05:26:12;;;;;;;10.70;7.20;;;4.80;93.40;;;;;;940732;149;27289;-80
2023/01/27 05:28:39;;;;;;;9.90;7.07;;;4.80;93.30;;;;;;939488;149;27663;-80
2023/01/27 05:31:11;;;;;;;11.33;7.13;;;4.80;93.10;;;;;;940385;150;28741;-80
2023/01/27 05:33:38;;;;;;;11.67;6.80;;;4.80;93.10;;;;;;938710;151;27306;-80
2023/01/27 05:36:04;;;;;;;8.87;6.53;;;4.80;93.00;;;;;;940615;150;27381;-80
2023/01/27 05:38:31;;;;;;;8.43;7.17;;;4.80;93.00;;;;;;940084;151;27460;-81
2023/01/27 05:40:59;;;;;;;9.40;7.40;;;4.80;93.00;;;;;;940008;150;27425;-80
2023/01/27 05:43:24;;;;;;;10.50;7.40;;;4.90;92.90;;;;;;939700;150;27292;-80
2023/01/27 05:45:51;;;;;;;9.43;7.23;;;4.90;92.80;;;;;;940384;150;27330;-80
2023/01/27 05:48:17;;;;;;;9.60;7.50;;;4.80;92.70;;;;;;940115;151;27297;-80
2023/01/27 05:50:44;;;;;;;9.63;6.47;;;4.80;92.70;;;;;;940123;151;27327;-80
2023/01/27 05:53:10;;;;;;;8.57;6.83;;;4.80;92.70;;;;;;939487;151;27246;-80
2023/01/27 05:55:37;;;;;;;9.43;7.00;;;4.80;92.70;;;;;;939269;152;27304;-80
2023/01/27 05:58:04;;;;;;;12.53;8.17;;;4.80;92.80;;;;;;939327;152;27810;-80
2023/01/27 06:00:30;;;;;;;10.00;7.30;;;4.80;92.70;;;;;;940560;149;27417;-80
2023/01/27 06:02:57;;;;;;;9.83;6.50;;;4.80;92.70;;;;;;940025;150;27331;-80
2023/01/27 06:05:23;;;;;;;8.10;6.13;;;4.90;92.70;;;;;;940320;150;27348;-80
2023/01/27 06:07:50;;;;;;;9.17;5.93;;;4.90;92.60;;;;;;940030;151;27347;-80
2023/01/27 06:10:17;;;;;;;8.87;6.60;;;4.80;92.60;;;;;;940634;152;27763;-80
2023/01/27 06:12:43;;;;;;;7.53;5.90;;;4.90;92.70;;;;;;939697;152;27429;-80
2023/01/27 06:15:10;;;;;;;7.87;5.63;;;4.90;92.60;;;;;;940652;149;27335;-80
2023/01/27 06:17:36;;;;;;;6.20;4.90;;;4.90;92.60;;;;;;940034;151;27446;-80
2023/01/27 06:20:03;;;;;;;6.60;5.43;;;4.90;92.50;;;;;;942588;149;27988;-80
2023/01/27 06:22:30;;;;;;;6.47;5.30;;;4.90;92.50;;;;;;953616;148;27338;-80
2023/01/27 06:24:56;;;;;;;8.80;5.50;;;4.90;92.50;;;;;;952729;148;27368;-80
2023/01/27 06:27:23;;;;;;;7.67;5.37;;;4.90;92.50;;;;;;952534;148;27314;-80
2023/01/27 06:29:49;;;;;;;8.33;5.97;;;4.90;92.50;;;;;;952284;148;27338;-80
2023/01/27 06:32:16;;;;;;;6.77;5.23;;;5.00;92.50;;;;;;952947;148;27285;-80
2023/01/27 06:34:43;;;;;;;8.37;5.73;;;5.00;92.50;;;;;;953141;148;27732;-80
2023/01/27 06:37:09;;;;;;;9.57;6.20;;;5.00;92.40;;;;;;952051;150;27317;-80
2023/01/27 06:39:36;;;;;;;8.37;6.63;;;5.00;92.40;;;;;;953281;150;27339;-80
2023/01/27 06:42:03;;;;;;;9.00;6.47;;;5.00;92.50;;;;;;952925;148;27400;-80
2023/01/27 06:44:29;;;;;;;6.37;5.53;;;5.00;92.50;;;;;;952787;148;27426;-80
2023/01/27 06:46:55;;;;;;;7.80;6.67;;;5.00;92.50;;;;;;952563;147;27453;-80
2023/01/27 06:49:22;;;;;;;8.53;6.50;;;5.00;92.60;;;;;;952466;150;27302;-80
2023/01/27 06:51:49;;;;;;;8.07;6.07;;;5.00;92.70;;;;;;952928;150;27302;-80
2023/01/27 06:54:15;;;;;;;9.40;6.70;;;5.00;92.70;;;;;;952525;148;27306;-80
2023/01/27 06:56:42;;;;;;;8.57;5.67;;;5.10;92.80;;;;;;953368;148;27341;-80
2023/01/27 06:59:08;;;;;;;7.43;5.83;;;5.10;92.80;;;;;;953552;148;27338;-80
2023/01/27 07:01:35;;;;;;;8.83;6.33;;;5.10;92.80;;;;;;951673;148;27915;-80
2023/01/27 07:04:01;;;;;;;9.20;6.30;;;5.10;92.90;;;;;;952456;148;27419;-80
2023/01/27 07:06:28;;;;;;;9.17;6.83;;;5.10;92.70;;;;;;953424;148;27330;-80
2023/01/27 07:08:55;;;;;;;9.40;7.00;;;5.10;92.70;;;;;;953240;148;27341;-80
2023/01/27 07:11:22;;;;;;;11.50;7.40;;;5.10;92.70;;;;;;952620;148;27277;-80
2023/01/27 07:13:48;;;;;;;7.93;5.97;;;5.10;92.60;;;;;;952847;149;27404;-80
2023/01/27 07:16:14;;;;;;;9.93;6.53;;;5.10;92.60;;;;;;953075;148;27317;-80
2023/01/27 07:18:41;;;;;;;9.17;5.73;;;5.20;92.60;;;;;;953171;150;27419;-80
2023/01/27 07:21:08;;;;;;;8.10;6.17;;;5.20;92.60;;;;;;947382;148;27399;-80
2023/01/27 07:23:34;;;;;;;8.43;5.90;;;5.20;92.60;;;;;;939056;150;27305;-80
2023/01/27 07:26:01;;;;;;;7.67;5.97;;;5.20;92.60;;;;;;940395;150;27289;-80
2023/01/27 07:28:27;;;;;;;8.13;6.17;;;5.20;92.60;;;;;;939603;149;27397;-80
2023/01/27 07:30:54;;;;;;;9.03;6.43;;;5.30;92.70;;;;;;939860;149;27862;-80
2023/01/27 07:33:20;;;;;;;7.90;6.07;;;5.30;92.80;;;;;;939752;150;27404;-80
2023/01/27 07:35:47;;;;;;;7.03;5.77;;;5.30;92.80;;;;;;939709;151;27236;-80
2023/01/27 07:38:14;;;;;;;8.33;6.13;;;5.30;92.70;;;;;;940433;151;27372;-80
2023/01/27 07:40:40;;;;;;;8.73;5.87;;;5.40;92.70;;;;;;940168;151;27424;-80
2023/01/27 07:43:07;;;;;;;8.30;6.27;;;5.40;92.70;;;;;;940566;150;27349;-80
2023/01/27 07:45:33;;;;;;;9.23;7.27;;;5.40;92.70;;;;;;938938;152;27330;-80
2023/01/27 07:48:00;;;;;;;9.00;6.43;;;5.50;92.70;;;;;;940817;149;28762;-81
2023/01/27 07:50:27;;;;;;;7.30;5.90;;;5.50;92.60;;;;;;940362;149;27401;-80
2023/01/27 07:52:53;;;;;;;8.33;6.60;;;5.50;92.60;;;;;;940337;149;27331;-81
2023/01/27 07:55:20;;;;;;;8.97;6.77;;;5.60;92.70;;;;;;939748;150;27421;-80
2023/01/27 07:57:46;;;;;;;10.33;7.87;;;5.60;92.70;;;;;;940595;149;27359;-80
2023/01/27 08:00:15;;;;;;;8.87;6.97;;;5.60;92.60;;;;;;940425;149;27307;-80
2023/01/27 08:02:41;;;;;;;9.77;6.70;;;5.60;92.50;;;;;;939319;152;27417;-80
2023/01/27 08:05:08;;;;;;;8.83;6.43;;;5.70;92.50;;;;;;940518;151;27317;-80
2023/01/27 08:07:34;;;;;;;9.00;6.97;;;5.70;92.50;;;;;;939990;150;27313;-80
2023/01/27 08:10:01;;;;;;;7.37;6.67;;;5.80;92.60;;;;;;940438;152;27339;-81
2023/01/27 08:12:28;;;;;;;8.13;6.50;;;5.80;92.60;;;;;;938880;152;27340;-80
2023/01/27 08:14:54;;;;;;;9.80;6.53;;;5.80;92.50;;;;;;940266;149;27335;-80
2023/01/27 08:17:21;;;;;;;8.90;6.77;;;5.90;92.60;;;;;;939056;152;27305;-80
2023/01/27 08:19:49;;;;;;;11.20;6.40;;;5.90;92.60;;;;;;937613;149;28149;-80
2023/01/27 08:22:18;;;;;;;8.23;6.07;;;5.90;92.40;;;;;;941752;148;27375;-80
2023/01/27 08:24:40;;;;;;;7.83;5.93;;;6.00;92.30;;;;;;945114;148;27377;-80
2023/01/27 08:27:08;;;;;;;9.87;6.80;;;6.00;92.30;;;;;;946474;148;27754;-80
2023/01/27 08:29:34;;;;;;;10.97;6.40;;;6.00;92.20;;;;;;946452;150;27323;-80
2023/01/27 08:32:00;;;;;;;12.17;6.93;;;6.00;92.20;;;;;;948121;150;27452;-80
2023/01/27 08:34:27;;;;;;;9.73;6.77;;;6.10;92.10;;;;;;948082;150;27412;-80
2023/01/27 08:36:53;;;;;;;7.67;6.13;;;6.10;92.10;;;;;;947871;151;27330;-80
2023/01/27 08:39:20;;;;;;;9.80;6.67;;;6.10;92.00;;;;;;948733;150;27363;-81
2023/01/27 08:41:47;;;;;;;13.80;6.77;;;6.10;92.00;;;;;;948536;150;27326;-81
2023/01/27 08:44:13;;;;;;;9.53;7.10;;;6.20;92.00;;;;;;948214;151;27415;-81
2023/01/27 08:46:40;;;;;;;9.97;5.90;;;6.20;92.00;;;;;;948038;151;27316;-81
2023/01/27 08:49:06;;;;;;;7.13;5.83;;;6.20;92.00;;;;;;948240;150;27278;-81
2023/01/27 08:51:33;;;;;;;10.03;6.53;;;6.20;91.90;;;;;;947564;150;27240;-81
2023/01/27 08:54:00;;;;;;;9.40;6.03;;;6.20;91.90;;;;;;948425;150;27468;-81
2023/01/27 08:56:26;;;;;;;9.97;6.33;;;6.20;91.90;;;;;;947800;151;27343;-81
2023/01/27 08:58:53;;;;;;;7.93;6.00;;;6.20;91.90;;;;;;948437;151;27377;-81
2023/01/27 09:01:19;;;;;;;7.00;5.80;;;6.20;91.90;;;;;;946291;150;27458;-81
2023/01/27 09:03:46;;;;;;;7.47;5.33;;;6.20;92.00;;;;;;948301;150;27339;-81
2023/01/27 09:06:12;;;;;;;5.07;4.57;;;6.20;92.00;;;;;;948424;148;27422;-81
2023/01/27 09:08:39;;;;;;;6.73;5.63;;;6.20;91.90;;;;;;947776;150;27368;-81
2023/01/27 09:11:11;;;;;;;5.97;5.27;;;6.20;91.90;;;;;;948020;150;28384;-81
2023/01/27 09:13:38;;;;;;;7.13;5.00;;;6.20;91.90;;;;;;946793;150;27438;-80
2023/01/27 09:16:05;;;;;;;9.00;5.60;;;6.20;92.00;;;;;;948402;151;27339;-80
2023/01/27 09:18:31;;;;;;;10.03;5.37;;;6.20;92.10;;;;;;948229;150;27334;-80
2023/01/27 09:20:58;;;;;;;7.30;5.50;;;6.20;92.10;;;;;;947259;151;27272;-81
2023/01/27 09:23:24;;;;;;;7.50;5.47;;;6.20;92.10;;;;;;949567;148;27876;-81
2023/01/27 09:25:51;;;;;;;7.43;5.87;;;6.20;92.10;;;;;;951867;150;27415;-81
2023/01/27 09:28:18;;;;;;;5.30;4.77;;;6.20;92.10;;;;;;952149;150;27423;-81
2023/01/27 09:30:46;;;;;;;15.83;5.47;;;6.20;92.10;;;;;;952674;150;27360;-81
2023/01/27 09:33:11;;;;;;;4.53;4.13;;;6.20;92.00;;;;;;953042;149;27290;-81
2023/01/27 09:35:37;;;;;;;4.90;4.20;;;6.20;91.90;;;;;;953279;148;27322;-81
2023/01/27 09:38:04;;;;;;;6.57;4.53;;;6.20;91.90;;;;;;952718;149;27499;-81
2023/01/27 09:40:30;;;;;;;4.63;4.23;;;6.20;91.80;;;;;;951875;150;28465;-81
2023/01/27 09:43:06;;;;;;;5.63;4.57;;;6.30;91.70;;;;;;952384;150;27321;-81
2023/01/27 09:45:41;;;;;;;5.27;4.67;;;6.20;91.70;;;;;;952210;150;27434;-81
2023/01/27 09:48:32;;;;;;;5.53;4.40;;;6.20;91.70;;;;;;938027;149;28877;-81
2023/01/27 09:51:01;;;;;;;5.10;4.50;;;6.20;91.80;;;;;;937766;149;27397;-81
2023/01/27 09:53:45;;;;;;;6.30;4.30;;;6.20;91.70;;;;;;951340;149;27407;-81
2023/01/27 09:56:12;;;;;;;6.13;4.00;;;6.30;91.80;;;;;;952016;150;27334;-81
2023/01/27 09:58:39;;;;;;;7.23;4.47;;;6.30;91.70;;;;;;951672;149;27259;-81
2023/01/27 10:01:08;;;;;;;5.10;4.20;;;6.30;91.70;;;;;;951460;149;27397;-81
2023/01/27 10:03:56;;;;;;;5.03;4.53;;;6.30;91.80;;;;;;951887;149;27337;-81
2023/01/27 10:06:43;;;;;;;4.67;4.27;;;6.30;91.90;;;;;;953718;148;27353;-81
2023/01/27 10:09:19;;;;;;;4.30;3.90;;;6.40;91.90;;;;;;953214;149;27522;-80
2023/01/27 10:11:54;;;;;;;3.70;3.40;;;6.40;91.80;;;;;;951879;149;27259;-81
2023/01/27 10:14:39;;;;;;;7.23;4.13;;;6.40;91.60;;;;;;956127;148;27281;-81
2023/01/27 10:17:11;;;;;;;4.40;4.00;;;6.40;91.50;;;;;;956040;148;27424;-81
2023/01/27 10:19:58;;;;;;;3.70;3.40;;;6.40;91.50;;;;;;955081;148;27458;-81
2023/01/27 10:22:34;;;;;;;3.43;3.13;;;6.50;91.60;;;;;;951661;148;27314;-81
2023/01/27 10:25:01;;;;;;;4.63;3.80;;;6.50;91.60;;;;;;939856;149;27355;-81
2023/01/27 10:27:27;;;;;;;3.77;3.33;;;6.60;91.60;;;;;;937514;151;27384;-81
2023/01/27 10:30:12;;;;;;;5.77;4.00;;;6.60;91.50;;;;;;939547;149;27296;-81
2023/01/27 10:32:44;;;;;;;4.23;3.70;;;6.60;91.50;;;;;;940003;152;27399;-81
2023/01/27 10:35:17;;;;;;;4.03;3.47;;;6.60;91.60;;;;;;940523;149;27394;-81
2023/01/27 10:37:55;;;;;;;3.67;3.00;;;6.70;91.50;;;;;;940115;150;27422;-82
2023/01/27 10:40:30;;;;;;;4.03;3.50;;;6.70;92.00;;;;;;940218;151;27389;-82
2023/01/27 10:42:57;;;;;;;4.33;3.77;;;6.80;92.20;;;;;;939843;151;27308;-81
2023/01/27 10:45:38;;;;;;;3.93;3.53;;;6.90;92.20;;;;;;936252;152;27288;-81
2023/01/27 10:48:17;;;;;;;3.57;3.27;;;7.00;92.10;;;;;;940307;149;27355;-81
2023/01/27 10:50:59;;;;;;;3.60;3.30;;;7.10;91.90;;;;;;938768;151;27285;-81
2023/01/27 10:53:58;;;;;;;3.33;3.03;;;7.30;91.60;;;;;;940036;151;27461;-81
2023/01/27 10:56:30;;;;;;;3.17;2.80;;;7.30;91.20;;;;;;939015;151;27284;-81
2023/01/27 10:59:03;;;;;;;3.23;2.60;;;7.40;91.10;;;;;;938014;152;27790;-82
2023/01/27 11:01:32;;;;;;;2.50;2.27;;;7.50;91.00;;;;;;939456;149;27432;-82
2023/01/27 11:04:02;;;;;;;3.20;2.50;;;7.50;90.90;;;;;;940687;150;27313;-82
2023/01/27 11:06:28;;;;;;;3.00;2.70;;;7.60;90.90;;;;;;940115;151;27344;-82
2023/01/27 11:09:04;;;;;;;2.87;2.60;;;7.70;91.00;;;;;;939378;152;27335;-81
2023/01/27 11:11:46;;;;;;;2.77;2.30;;;7.80;90.90;;;;;;939756;151;27336;-82
2023/01/27 11:14:27;;;;;;;2.03;1.90;;;7.90;90.80;;;;;;939535;150;27401;-82
2023/01/27 11:17:00;;;;;;;2.50;2.30;;;8.10;90.60;;;;;;940455;150;27384;-81
2023/01/27 11:19:48;;;;;;;3.00;2.70;;;8.20;90.30;;;;;;939523;151;27370;-81
2023/01/27 11:22:20;;;;;;;2.60;2.40;;;8.20;90.10;;;;;;938788;151;27364;-81
2023/01/27 11:24:52;;;;;;;2.30;2.10;;;8.30;89.40;;;;;;938923;150;27421;-81
2023/01/27 11:27:25;;;;;;;2.80;2.60;;;8.30;88.60;;;;;;939749;149;27277;-81
2023/01/27 11:29:54;;;;;;;3.03;2.63;;;8.30;88.00;;;;;;940187;148;27321;-81
2023/01/27 11:32:38;;;;;;;2.47;2.27;;;8.30;87.50;;;;;;938755;151;27436;-81
2023/01/27 11:35:11;;;;;;;2.13;1.93;;;8.40;87.40;;;;;;940392;151;27399;-81
2023/01/27 11:37:43;;;;;;;2.43;2.23;;;8.30;86.80;;;;;;939482;151;27414;-81
2023/01/27 11:40:16;;;;;;;2.30;2.10;;;8.30;86.70;;;;;;940202;151;27392;-81
2023/01/27 11:42:42;;;;;;;2.30;2.10;;;8.30;86.70;;;;;;938853;152;27397;-81
2023/01/27 11:45:14;;;;;;;2.00;1.90;;;8.40;87.30;;;;;;940196;151;27392;-81
2023/01/27 11:47:41;;;;;;;1.83;1.73;;;8.40;87.80;;;;;;939837;149;27432;-81
2023/01/27 11:50:08;;;;;;;2.03;1.83;;;8.50;88.10;;;;;;940123;152;27316;-80
2023/01/27 11:52:34;;;;;;;2.03;1.90;;;8.60;88.00;;;;;;938850;152;27313;-80
2023/01/27 11:55:13;;;;;;;2.10;2.00;;;8.70;87.40;;;;;;928892;150;27337;-81
2023/01/27 11:57:39;;;;;;;1.40;1.30;;;8.70;86.40;;;;;;931055;151;27448;-82
2023/01/27 12:00:12;;;;;;;1.67;1.57;;;8.80;85.50;;;;;;931822;150;27374;-82
2023/01/27 12:02:41;;;;;;;1.70;1.60;;;8.80;84.70;;;;;;926571;152;27345;-81
2023/01/27 12:05:08;;;;;;;1.93;1.80;;;8.80;84.20;;;;;;943628;149;27804;-82
2023/01/27 12:07:35;;;;;;;1.80;1.70;;;8.80;83.80;;;;;;944090;149;27341;-82
2023/01/27 12:10:02;;;;;;;1.90;1.80;;;8.70;83.60;;;;;;942127;149;27375;-81
2023/01/27 12:12:28;;;;;;;1.77;1.67;;;8.70;83.70;;;;;;943054;149;27423;-82
2023/01/27 12:14:54;;;;;;;1.47;1.37;;;8.70;83.70;;;;;;943634;149;27254;-81
2023/01/27 12:17:42;;;;;;;1.40;1.30;;;8.60;83.60;;;;;;942600;149;27451;-82
2023/01/27 12:20:21;;;;;;;1.37;1.27;;;8.60;83.60;;;;;;943592;149;27360;-81
2023/01/27 12:22:47;;;;;;;1.57;1.47;;;8.60;83.60;;;;;;943567;149;27373;-82
2023/01/27 12:25:14;;;;;;;2.80;1.10;;;8.60;83.50;;;;;;943846;149;27434;-82
2023/01/27 12:27:41;;;;;;;1.20;1.20;;;8.50;83.20;;;;;;943552;151;27716;-82
2023/01/27 12:30:07;;;;;;;1.10;1.10;;;8.50;82.80;;;;;;944447;151;27414;-83
2023/01/27 12:32:37;;;;;;;1.03;1.03;;;8.50;82.50;;;;;;943051;151;27368;-82
2023/01/27 12:35:03;;;;;;;1.53;1.20;;;8.50;82.50;;;;;;943955;151;27338;-82
2023/01/27 12:37:32;;;;;;;1.07;0.97;;;8.40;82.50;;;;;;945563;151;27354;-82
2023/01/27 12:40:02;;;;;;;1.40;1.30;;;8.40;82.40;;;;;;944431;151;27399;-83
2023/01/27 12:42:40;;;;;;;1.30;1.20;;;8.30;82.40;;;;;;944220;151;27357;-83
2023/01/27 12:45:19;;;;;;;3.73;1.50;;;8.30;82.50;;;;;;944187;151;27278;-83
2023/01/27 12:48:01;;;;;;;1.60;1.40;;;8.30;82.60;;;;;;944394;151;27370;-82
2023/01/27 12:50:30;;;;;;;0.80;0.80;;;8.30;82.50;;;;;;943421;151;27403;-82
2023/01/27 12:53:12;;;;;;;3.83;1.70;;;8.20;82.50;;;;;;944255;151;27474;-82
2023/01/27 12:55:39;;;;;;;9.17;1.97;;;8.10;82.50;;;;;;943976;151;27380;-82
2023/01/27 12:58:05;;;;;;;6.20;1.87;;;8.10;82.70;;;;;;942982;148;27653;-83
2023/01/27 13:00:32;;;;;;;3.80;1.43;;;8.10;82.70;;;;;;943202;148;27349;-82
2023/01/27 13:03:01;;;;;;;1.33;1.30;;;8.10;82.80;;;;;;944991;151;27435;-82
2023/01/27 13:05:28;;;;;;;2.70;1.20;;;8.10;82.70;;;;;;944811;151;27466;-82
2023/01/27 13:07:54;;;;;;;1.40;1.30;;;8.10;82.90;;;;;;945452;151;27482;-82
2023/01/27 13:10:21;;;;;;;2.70;1.50;;;8.10;83.00;;;;;;944407;151;27334;-82
2023/01/27 13:12:50;;;;;;;1.30;1.20;;;8.00;82.90;;;;;;944743;151;27418;-83
2023/01/27 13:15:18;;;;;;;1.40;1.37;;;8.10;82.70;;;;;;944787;151;27384;-83
2023/01/27 13:17:47;;;;;;;1.70;1.60;;;8.00;82.60;;;;;;925450;152;27409;-82
2023/01/27 13:20:24;;;;;;;5.77;2.10;;;8.00;82.70;;;;;;929751;152;27365;-83
2023/01/27 13:22:51;;;;;;;1.60;1.50;;;8.00;82.80;;;;;;944840;151;27365;-82
2023/01/27 13:25:20;;;;;;;4.57;2.00;;;8.00;83.20;;;;;;943887;151;27365;-83
2023/01/27 13:27:47;;;;;;;5.30;2.67;;;8.10;83.20;;;;;;944086;151;27325;-85
2023/01/27 13:30:32;;;;;;;2.60;1.20;;;8.10;83.30;;;;;;945194;151;27807;-82
2023/01/27 13:32:58;;;;;;;1.40;1.30;;;8.20;83.10;;;;;;944558;151;27316;-83